sensor_id;sensor_type;location;lat;lon;timestamp;temperature;humidity
11597;DHT22;5854;48.072;16.286;2023-08-08T01:06:13;15.20;55.20
11597;DHT22;5854;48.072;16.286;2023-08-08T01:24:43;15.20;55.10
11597;DHT22;5854;48.072;16.286;2023-08-08T01:32:21;15.00;55.50
11597;DHT22;5854;48.072;16.286;2023-08-08T01:37:29;15.20;55.40
11597;DHT22;5854;48.072;16.286;2023-08-08T01:40:02;15.20;55.40
11597;DHT22;5854;48.072;16.286;2023-08-08T05:27:47;16.00;54.20
11597;DHT22;5854;48.072;16.286;2023-08-08T05:30:15;16.10;53.40
11597;DHT22;5854;48.072;16.286;2023-08-08T05:32:42;16.10;53.00
11597;DHT22;5854;48.072;16.286;2023-08-08T05:45:34;16.70;51.50
11597;DHT22;5854;48.072;16.286;2023-08-08T05:48:02;16.60;52.10
11597;DHT22;5854;48.072;16.286;2023-08-08T05:50:29;16.70;52.20
11597;DHT22;5854;48.072;16.286;2023-08-08T05:52:57;16.70;51.50
11597;DHT22;5854;48.072;16.286;2023-08-08T07:12:57;22.30;38.30
11597;DHT22;5854;48.072;16.286;2023-08-08T07:15:25;22.90;37.70
11597;DHT22;5854;48.072;16.286;2023-08-08T07:18:02;23.30;36.60
11597;DHT22;5854;48.072;16.286;2023-08-08T07:20:33;23.30;36.80
11597;DHT22;5854;48.072;16.286;2023-08-08T07:23:02;24.00;36.30
11597;DHT22;5854;48.072;16.286;2023-08-08T07:25:38;24.30;34.60
11597;DHT22;5854;48.072;16.286;2023-08-08T07:42:02;23.40;35.60
11597;DHT22;5854;48.072;16.286;2023-08-08T07:44:31;24.10;35.10
11597;DHT22;5854;48.072;16.286;2023-08-08T07:49:35;23.20;35.80
11597;DHT22;5854;48.072;16.286;2023-08-08T07:52:04;22.30;37.60
11597;DHT22;5854;48.072;16.286;2023-08-08T07:54:45;21.80;38.40
11597;DHT22;5854;48.072;16.286;2023-08-08T07:57:17;21.50;38.40
11597;DHT22;5854;48.072;16.286;2023-08-08T07:59:46;21.60;38.00
11597;DHT22;5854;48.072;16.286;2023-08-08T08:02:16;22.10;39.10
11597;DHT22;5854;48.072;16.286;2023-08-08T08:15:08;22.20;37.70
11597;DHT22;5854;48.072;16.286;2023-08-08T08:18:09;21.00;39.20
11597;DHT22;5854;48.072;16.286;2023-08-08T08:20:56;20.80;40.90
11597;DHT22;5854;48.072;16.286;2023-08-08T08:23:25;20.80;43.90
11597;DHT22;5854;48.072;16.286;2023-08-08T08:25:55;20.80;39.70
11597;DHT22;5854;48.072;16.286;2023-08-08T08:28:25;20.70;41.00
11597;DHT22;5854;48.072;16.286;2023-08-08T10:56:47;21.00;38.70
11597;DHT22;5854;48.072;16.286;2023-08-08T12:08:55;22.50;36.40
11597;DHT22;5854;48.072;16.286;2023-08-08T12:14:00;22.10;34.00
11597;DHT22;5854;48.072;16.286;2023-08-08T12:16:51;22.20;37.70
11597;DHT22;5854;48.072;16.286;2023-08-08T12:19:23;22.30;34.60
11597;DHT22;5854;48.072;16.286;2023-08-08T12:21:55;22.30;36.10
11597;DHT22;5854;48.072;16.286;2023-08-08T12:34:52;22.40;39.70
11597;DHT22;5854;48.072;16.286;2023-08-08T12:37:21;22.50;35.30
11597;DHT22;5854;48.072;16.286;2023-08-08T12:40:07;22.70;33.50
11597;DHT22;5854;48.072;16.286;2023-08-08T12:42:51;22.70;33.10
11597;DHT22;5854;48.072;16.286;2023-08-08T12:45:20;22.70;38.50
11597;DHT22;5854;48.072;16.286;2023-08-08T12:48:04;22.80;36.60
11597;DHT22;5854;48.072;16.286;2023-08-08T13:16:57;26.60;32.00
11597;DHT22;5854;48.072;16.286;2023-08-08T13:19:27;26.40;29.60
11597;DHT22;5854;48.072;16.286;2023-08-08T13:22:13;26.30;31.20
11597;DHT22;5854;48.072;16.286;2023-08-08T13:25:02;25.90;31.10
11597;DHT22;5854;48.072;16.286;2023-08-08T13:37:53;25.70;29.90
11597;DHT22;5854;48.072;16.286;2023-08-08T13:40:21;25.50;29.90
11597;DHT22;5854;48.072;16.286;2023-08-08T13:48:01;25.80;30.40
11597;DHT22;5854;48.072;16.286;2023-08-08T13:50:31;25.80;32.00
11597;DHT22;5854;48.072;16.286;2023-08-08T14:05:59;25.00;29.00
11597;DHT22;5854;48.072;16.286;2023-08-08T14:21:25;24.50;33.50
11597;DHT22;5854;48.072;16.286;2023-08-08T14:23:55;24.20;28.30
11597;DHT22;5854;48.072;16.286;2023-08-08T14:26:23;24.10;30.80
11597;DHT22;5854;48.072;16.286;2023-08-08T14:28:50;24.00;36.20
11597;DHT22;5854;48.072;16.286;2023-08-08T14:31:22;23.80;32.00
11597;DHT22;5854;48.072;16.286;2023-08-08T14:33:52;23.90;35.80
11597;DHT22;5854;48.072;16.286;2023-08-08T14:36:19;23.90;31.10
11597;DHT22;5854;48.072;16.286;2023-08-08T14:46:35;23.90;32.50
11597;DHT22;5854;48.072;16.286;2023-08-08T14:51:44;23.70;34.10
11597;DHT22;5854;48.072;16.286;2023-08-08T14:54:26;23.80;33.60
11597;DHT22;5854;48.072;16.286;2023-08-08T14:56:53;23.80;35.40
11597;DHT22;5854;48.072;16.286;2023-08-08T14:59:21;23.90;32.70
11597;DHT22;5854;48.072;16.286;2023-08-08T15:40:38;24.10;32.70
11597;DHT22;5854;48.072;16.286;2023-08-08T15:43:05;24.00;32.50
11597;DHT22;5854;48.072;16.286;2023-08-08T15:45:33;24.10;33.00
11597;DHT22;5854;48.072;16.286;2023-08-08T15:50:32;24.30;33.30
11597;DHT22;5854;48.072;16.286;2023-08-08T15:53:10;24.10;33.00
11597;DHT22;5854;48.072;16.286;2023-08-08T15:55:39;24.00;35.80
11597;DHT22;5854;48.072;16.286;2023-08-08T15:58:06;23.80;35.20
11597;DHT22;5854;48.072;16.286;2023-08-08T16:00:32;23.90;34.10
11597;DHT22;5854;48.072;16.286;2023-08-08T16:03:00;23.90;34.60
11597;DHT22;5854;48.072;16.286;2023-08-08T16:05:27;23.90;34.80
11597;DHT22;5854;48.072;16.286;2023-08-08T16:07:54;23.60;34.00
11597;DHT22;5854;48.072;16.286;2023-08-08T16:10:21;23.60;35.30
11597;DHT22;5854;48.072;16.286;2023-08-08T16:12:50;23.50;35.40
11597;DHT22;5854;48.072;16.286;2023-08-08T16:15:17;23.50;34.90
11597;DHT22;5854;48.072;16.286;2023-08-08T16:17:44;23.50;35.70
11597;DHT22;5854;48.072;16.286;2023-08-08T16:20:11;23.40;36.00
11597;DHT22;5854;48.072;16.286;2023-08-08T16:22:38;23.50;37.70
11597;DHT22;5854;48.072;16.286;2023-08-08T16:25:07;23.50;38.40
11597;DHT22;5854;48.072;16.286;2023-08-08T16:27:34;23.60;35.80
11597;DHT22;5854;48.072;16.286;2023-08-08T16:30:02;23.40;36.00
11597;DHT22;5854;48.072;16.286;2023-08-08T16:32:30;23.60;38.20
11597;DHT22;5854;48.072;16.286;2023-08-08T16:34:57;23.60;35.50
11597;DHT22;5854;48.072;16.286;2023-08-08T16:37:24;24.00;38.00
11597;DHT22;5854;48.072;16.286;2023-08-08T16:39:51;24.60;38.10
11597;DHT22;5854;48.072;16.286;2023-08-08T16:42:19;24.60;33.30
11597;DHT22;5854;48.072;16.286;2023-08-08T16:44:46;24.60;36.30
11597;DHT22;5854;48.072;16.286;2023-08-08T16:47:14;24.50;33.30
11597;DHT22;5854;48.072;16.286;2023-08-08T16:49:42;24.60;36.00
11597;DHT22;5854;48.072;16.286;2023-08-08T16:52:09;24.70;39.00
11597;DHT22;5854;48.072;16.286;2023-08-08T16:54:36;24.90;37.30
11597;DHT22;5854;48.072;16.286;2023-08-08T16:57:03;24.90;38.90
11597;DHT22;5854;48.072;16.286;2023-08-08T16:59:30;25.00;36.20
11597;DHT22;5854;48.072;16.286;2023-08-08T17:01:57;25.00;36.90
11597;DHT22;5854;48.072;16.286;2023-08-08T17:04:25;25.20;38.20
11597;DHT22;5854;48.072;16.286;2023-08-08T17:06:52;25.20;40.20
11597;DHT22;5854;48.072;16.286;2023-08-08T17:09:19;25.30;38.70
11597;DHT22;5854;48.072;16.286;2023-08-08T17:11:48;25.30;39.30
11597;DHT22;5854;48.072;16.286;2023-08-08T17:14:15;25.20;40.10
11597;DHT22;5854;48.072;16.286;2023-08-08T17:16:42;25.10;40.50
11597;DHT22;5854;48.072;16.286;2023-08-08T17:19:10;25.00;40.50
11597;DHT22;5854;48.072;16.286;2023-08-08T17:21:38;24.90;40.90
11597;DHT22;5854;48.072;16.286;2023-08-08T17:24:05;24.80;42.20
11597;DHT22;5854;48.072;16.286;2023-08-08T17:26:32;24.80;42.00
11597;DHT22;5854;48.072;16.286;2023-08-08T17:29:00;24.90;42.60
11597;DHT22;5854;48.072;16.286;2023-08-08T17:31:27;24.80;42.60
11597;DHT22;5854;48.072;16.286;2023-08-08T17:33:54;24.70;42.70
11597;DHT22;5854;48.072;16.286;2023-08-08T17:36:23;24.60;42.50
11597;DHT22;5854;48.072;16.286;2023-08-08T17:38:51;24.50;42.30
11597;DHT22;5854;48.072;16.286;2023-08-08T17:41:18;24.40;43.40
11597;DHT22;5854;48.072;16.286;2023-08-08T17:43:45;24.30;43.30
11597;DHT22;5854;48.072;16.286;2023-08-08T17:46:12;24.20;44.40
11597;DHT22;5854;48.072;16.286;2023-08-08T17:48:39;24.30;43.50
11597;DHT22;5854;48.072;16.286;2023-08-08T17:51:07;24.10;43.20
11597;DHT22;5854;48.072;16.286;2023-08-08T17:56:21;23.90;44.20
11597;DHT22;5854;48.072;16.286;2023-08-08T17:58:52;23.60;44.10
11597;DHT22;5854;48.072;16.286;2023-08-08T18:09:14;23.30;46.00
11597;DHT22;5854;48.072;16.286;2023-08-08T18:12:09;23.40;44.40
11597;DHT22;5854;48.072;16.286;2023-08-08T18:17:12;22.80;45.20
11597;DHT22;5854;48.072;16.286;2023-08-08T18:27:28;22.80;45.70
11597;DHT22;5854;48.072;16.286;2023-08-08T18:29:55;22.70;48.10
11597;DHT22;5854;48.072;16.286;2023-08-08T18:32:22;23.00;46.60
11597;DHT22;5854;48.072;16.286;2023-08-08T18:34:49;23.00;46.50
11597;DHT22;5854;48.072;16.286;2023-08-08T18:37:15;22.90;45.80
11597;DHT22;5854;48.072;16.286;2023-08-08T18:42:18;22.30;45.30
11597;DHT22;5854;48.072;16.286;2023-08-08T18:44:46;22.10;46.20
11597;DHT22;5854;48.072;16.286;2023-08-08T18:47:13;22.20;48.10
11597;DHT22;5854;48.072;16.286;2023-08-08T18:49:40;22.00;45.30
11597;DHT22;5854;48.072;16.286;2023-08-08T18:52:07;21.80;46.70
11597;DHT22;5854;48.072;16.286;2023-08-08T18:54:34;21.60;45.90
11597;DHT22;5854;48.072;16.286;2023-08-08T18:57:01;21.60;47.80
11597;DHT22;5854;48.072;16.286;2023-08-08T18:59:28;21.70;50.70
11597;DHT22;5854;48.072;16.286;2023-08-08T19:01:56;21.80;47.40
11597;DHT22;5854;48.072;16.286;2023-08-08T19:04:23;22.00;49.70
11597;DHT22;5854;48.072;16.286;2023-08-08T19:06:50;21.80;46.40
11597;DHT22;5854;48.072;16.286;2023-08-08T19:09:17;21.70;47.90
11597;DHT22;5854;48.072;16.286;2023-08-08T19:11:44;21.70;48.90
11597;DHT22;5854;48.072;16.286;2023-08-08T19:14:11;21.60;47.30
11597;DHT22;5854;48.072;16.286;2023-08-08T19:16:38;21.50;48.60
11597;DHT22;5854;48.072;16.286;2023-08-08T19:19:08;21.30;48.10
11597;DHT22;5854;48.072;16.286;2023-08-08T19:21:35;21.30;49.60
11597;DHT22;5854;48.072;16.286;2023-08-08T19:24:02;21.00;49.40
11597;DHT22;5854;48.072;16.286;2023-08-08T19:26:29;21.00;48.20
11597;DHT22;5854;48.072;16.286;2023-08-08T19:28:56;21.20;48.40
11597;DHT22;5854;48.072;16.286;2023-08-08T19:31:24;21.50;47.80
11597;DHT22;5854;48.072;16.286;2023-08-08T19:33:51;21.10;47.80
11597;DHT22;5854;48.072;16.286;2023-08-08T19:36:20;21.20;50.10
11597;DHT22;5854;48.072;16.286;2023-08-08T19:38:47;21.10;48.60
11597;DHT22;5854;48.072;16.286;2023-08-08T19:41:14;21.00;49.10
11597;DHT22;5854;48.072;16.286;2023-08-08T19:43:41;20.90;49.70
11597;DHT22;5854;48.072;16.286;2023-08-08T19:46:08;21.20;52.10
11597;DHT22;5854;48.072;16.286;2023-08-08T19:48:35;21.40;49.00
11597;DHT22;5854;48.072;16.286;2023-08-08T19:51:02;21.30;47.30
11597;DHT22;5854;48.072;16.286;2023-08-08T19:53:47;21.10;51.40
11597;DHT22;5854;48.072;16.286;2023-08-08T19:56:14;21.60;51.00
11597;DHT22;5854;48.072;16.286;2023-08-08T19:58:41;21.80;50.90
11597;DHT22;5854;48.072;16.286;2023-08-08T20:01:08;21.70;49.90
11597;DHT22;5854;48.072;16.286;2023-08-08T20:03:35;21.80;50.60
11597;DHT22;5854;48.072;16.286;2023-08-08T20:06:02;21.80;48.30
11597;DHT22;5854;48.072;16.286;2023-08-08T20:08:30;21.50;49.40
11597;DHT22;5854;48.072;16.286;2023-08-08T20:10:58;21.50;46.30
11597;DHT22;5854;48.072;16.286;2023-08-08T20:13:25;21.10;48.90
11597;DHT22;5854;48.072;16.286;2023-08-08T20:15:52;21.30;51.80
11597;DHT22;5854;48.072;16.286;2023-08-08T20:18:19;21.40;47.30
11597;DHT22;5854;48.072;16.286;2023-08-08T20:20:46;21.10;49.60
11597;DHT22;5854;48.072;16.286;2023-08-08T20:23:13;21.10;49.90
11597;DHT22;5854;48.072;16.286;2023-08-08T20:25:40;21.10;49.50
11597;DHT22;5854;48.072;16.286;2023-08-08T20:28:09;21.20;51.50
11597;DHT22;5854;48.072;16.286;2023-08-08T20:30:36;21.20;48.90
11597;DHT22;5854;48.072;16.286;2023-08-08T20:33:06;21.00;50.80
11597;DHT22;5854;48.072;16.286;2023-08-08T20:35:34;20.90;47.00
11597;DHT22;5854;48.072;16.286;2023-08-08T20:38:01;20.50;47.50
11597;DHT22;5854;48.072;16.286;2023-08-08T20:40:28;20.70;51.80
11597;DHT22;5854;48.072;16.286;2023-08-08T20:42:54;20.70;49.20
11597;DHT22;5854;48.072;16.286;2023-08-08T20:45:23;20.80;51.60
11597;DHT22;5854;48.072;16.286;2023-08-08T20:47:50;21.10;51.10
11597;DHT22;5854;48.072;16.286;2023-08-08T20:50:17;21.10;49.80
11597;DHT22;5854;48.072;16.286;2023-08-08T20:52:44;21.20;51.10
11597;DHT22;5854;48.072;16.286;2023-08-08T20:55:11;21.30;50.30
11597;DHT22;5854;48.072;16.286;2023-08-08T20:57:38;21.20;46.00
11597;DHT22;5854;48.072;16.286;2023-08-08T21:00:05;20.70;47.90
11597;DHT22;5854;48.072;16.286;2023-08-08T21:02:36;20.40;46.40
11597;DHT22;5854;48.072;16.286;2023-08-08T21:05:03;20.20;49.40
11597;DHT22;5854;48.072;16.286;2023-08-08T21:07:32;20.40;52.60
11597;DHT22;5854;48.072;16.286;2023-08-08T21:09:59;20.20;47.40
11597;DHT22;5854;48.072;16.286;2023-08-08T21:12:26;20.30;49.00
11597;DHT22;5854;48.072;16.286;2023-08-08T21:14:52;20.40;50.40
11597;DHT22;5854;48.072;16.286;2023-08-08T21:17:19;20.20;47.60
11597;DHT22;5854;48.072;16.286;2023-08-08T21:19:48;20.30;48.80
11597;DHT22;5854;48.072;16.286;2023-08-08T21:22:18;20.10;47.60
11597;DHT22;5854;48.072;16.286;2023-08-08T21:24:45;19.80;48.10
11597;DHT22;5854;48.072;16.286;2023-08-08T21:27:13;19.70;49.50
11597;DHT22;5854;48.072;16.286;2023-08-08T21:29:41;19.60;49.80
11597;DHT22;5854;48.072;16.286;2023-08-08T21:32:09;19.50;49.80
11597;DHT22;5854;48.072;16.286;2023-08-08T21:34:36;19.50;50.40
11597;DHT22;5854;48.072;16.286;2023-08-08T21:37:04;19.50;50.90
11597;DHT22;5854;48.072;16.286;2023-08-08T21:39:31;19.50;50.90
11597;DHT22;5854;48.072;16.286;2023-08-08T21:41:58;19.50;50.30
11597;DHT22;5854;48.072;16.286;2023-08-08T21:44:25;19.70;51.40
11597;DHT22;5854;48.072;16.286;2023-08-08T21:46:52;19.60;52.30
11597;DHT22;5854;48.072;16.286;2023-08-08T21:49:19;19.60;50.30
11597;DHT22;5854;48.072;16.286;2023-08-08T21:51:46;19.50;50.30
11597;DHT22;5854;48.072;16.286;2023-08-08T21:54:14;19.40;50.20
11597;DHT22;5854;48.072;16.286;2023-08-08T21:56:41;19.40;50.50
11597;DHT22;5854;48.072;16.286;2023-08-08T21:59:10;19.40;51.10
11597;DHT22;5854;48.072;16.286;2023-08-08T22:01:37;19.30;49.90
11597;DHT22;5854;48.072;16.286;2023-08-08T22:04:04;19.30;50.50
11597;DHT22;5854;48.072;16.286;2023-08-08T22:06:31;19.20;50.10
11597;DHT22;5854;48.072;16.286;2023-08-08T22:08:58;19.30;50.40
11597;DHT22;5854;48.072;16.286;2023-08-08T22:11:27;19.30;49.70
11597;DHT22;5854;48.072;16.286;2023-08-08T22:13:54;19.40;52.40
11597;DHT22;5854;48.072;16.286;2023-08-08T22:16:21;19.60;52.00
11597;DHT22;5854;48.072;16.286;2023-08-08T22:18:48;19.70;53.10
11597;DHT22;5854;48.072;16.286;2023-08-08T22:21:15;19.80;52.00
11597;DHT22;5854;48.072;16.286;2023-08-08T22:23:42;19.50;49.60
11597;DHT22;5854;48.072;16.286;2023-08-08T22:26:10;19.50;49.30
11597;DHT22;5854;48.072;16.286;2023-08-08T22:28:39;19.30;48.80
11597;DHT22;5854;48.072;16.286;2023-08-08T22:31:06;19.10;49.80
11597;DHT22;5854;48.072;16.286;2023-08-08T22:33:35;19.10;50.40
11597;DHT22;5854;48.072;16.286;2023-08-08T22:36:03;19.00;50.70
11597;DHT22;5854;48.072;16.286;2023-08-08T22:38:30;19.00;53.00
11597;DHT22;5854;48.072;16.286;2023-08-08T22:40:57;19.20;52.70
11597;DHT22;5854;48.072;16.286;2023-08-08T22:43:24;19.20;50.80
11597;DHT22;5854;48.072;16.286;2023-08-08T22:45:53;19.30;51.40
11597;DHT22;5854;48.072;16.286;2023-08-08T22:48:19;19.50;52.60
11597;DHT22;5854;48.072;16.286;2023-08-08T22:50:46;19.90;54.00
11597;DHT22;5854;48.072;16.286;2023-08-08T22:53:13;20.20;52.90
11597;DHT22;5854;48.072;16.286;2023-08-08T22:55:40;20.10;48.10
11597;DHT22;5854;48.072;16.286;2023-08-08T22:58:07;19.70;47.60
11597;DHT22;5854;48.072;16.286;2023-08-08T23:00:34;19.20;50.60
11597;DHT22;5854;48.072;16.286;2023-08-08T23:03:02;19.50;54.00
11597;DHT22;5854;48.072;16.286;2023-08-08T23:05:30;19.90;52.50
11597;DHT22;5854;48.072;16.286;2023-08-08T23:07:56;19.80;49.00
11597;DHT22;5854;48.072;16.286;2023-08-08T23:10:23;19.50;53.60
11597;DHT22;5854;48.072;16.286;2023-08-08T23:12:50;19.40;50.70
11597;DHT22;5854;48.072;16.286;2023-08-08T23:15:17;19.30;51.60
11597;DHT22;5854;48.072;16.286;2023-08-08T23:17:44;19.10;51.10
11597;DHT22;5854;48.072;16.286;2023-08-08T23:20:13;18.90;51.30
11597;DHT22;5854;48.072;16.286;2023-08-08T23:22:39;18.90;53.30
11597;DHT22;5854;48.072;16.286;2023-08-08T23:25:07;19.20;54.10
11597;DHT22;5854;48.072;16.286;2023-08-08T23:27:34;19.10;51.40
11597;DHT22;5854;48.072;16.286;2023-08-08T23:30:01;18.80;51.30
11597;DHT22;5854;48.072;16.286;2023-08-08T23:32:28;19.00;52.20
11597;DHT22;5854;48.072;16.286;2023-08-08T23:34:55;18.80;52.60
11597;DHT22;5854;48.072;16.286;2023-08-08T23:37:23;18.90;52.70
11597;DHT22;5854;48.072;16.286;2023-08-08T23:39:50;18.80;51.90
11597;DHT22;5854;48.072;16.286;2023-08-08T23:42:17;18.80;53.30
11597;DHT22;5854;48.072;16.286;2023-08-08T23:44:44;19.00;53.10
11597;DHT22;5854;48.072;16.286;2023-08-08T23:47:11;19.00;52.30
11597;DHT22;5854;48.072;16.286;2023-08-08T23:49:38;19.00;53.90
11597;DHT22;5854;48.072;16.286;2023-08-08T23:52:05;19.00;52.90
11597;DHT22;5854;48.072;16.286;2023-08-08T23:54:33;18.90;52.70
11597;DHT22;5854;48.072;16.286;2023-08-08T23:57:00;18.80;55.00
11597;DHT22;5854;48.072;16.286;2023-08-08T23:59:27;19.00;52.90
